sensor_id;sensor_type;location;lat;lon;timestamp;temperature;humidity
7384;DHT22;3733;47.994;8.820;2023-04-24T00:01:30;10.70;95.50
7384;DHT22;3733;47.994;8.820;2023-04-24T00:03:56;10.70;95.40
7384;DHT22;3733;47.994;8.820;2023-04-24T00:06:27;10.70;95.10
7384;DHT22;3733;47.994;8.820;2023-04-24T00:09:00;10.70;95.00
7384;DHT22;3733;47.994;8.820;2023-04-24T00:11:26;10.70;94.50
7384;DHT22;3733;47.994;8.820;2023-04-24T00:13:52;10.60;94.80
7384;DHT22;3733;47.994;8.820;2023-04-24T00:16:18;10.60;94.40
7384;DHT22;3733;47.994;8.820;2023-04-24T00:18:44;10.60;94.20
7384;DHT22;3733;47.994;8.820;2023-04-24T00:21:10;10.60;94.30
7384;DHT22;3733;47.994;8.820;2023-04-24T00:23:36;10.50;94.60
7384;DHT22;3733;47.994;8.820;2023-04-24T00:26:02;10.50;94.70
7384;DHT22;3733;47.994;8.820;2023-04-24T00:28:27;10.50;94.70
7384;DHT22;3733;47.994;8.820;2023-04-24T00:30:53;10.50;95.00
7384;DHT22;3733;47.994;8.820;2023-04-24T00:33:19;10.50;94.80
7384;DHT22;3733;47.994;8.820;2023-04-24T00:35:45;10.50;94.60
7384;DHT22;3733;47.994;8.820;2023-04-24T00:38:10;10.50;94.60
7384;DHT22;3733;47.994;8.820;2023-04-24T00:40:36;10.50;94.80
7384;DHT22;3733;47.994;8.820;2023-04-24T00:43:02;10.50;94.50
7384;DHT22;3733;47.994;8.820;2023-04-24T00:45:27;10.50;93.90
7384;DHT22;3733;47.994;8.820;2023-04-24T00:47:53;10.50;93.80
7384;DHT22;3733;47.994;8.820;2023-04-24T00:50:20;10.50;94.40
7384;DHT22;3733;47.994;8.820;2023-04-24T00:52:46;10.50;94.10
7384;DHT22;3733;47.994;8.820;2023-04-24T00:55:12;10.50;94.10
7384;DHT22;3733;47.994;8.820;2023-04-24T00:57:38;10.50;94.10
7384;DHT22;3733;47.994;8.820;2023-04-24T01:00:05;10.50;93.90
7384;DHT22;3733;47.994;8.820;2023-04-24T01:02:31;10.50;94.30
7384;DHT22;3733;47.994;8.820;2023-04-24T01:05:00;10.50;94.50
7384;DHT22;3733;47.994;8.820;2023-04-24T01:07:26;10.40;94.70
7384;DHT22;3733;47.994;8.820;2023-04-24T01:09:52;10.50;94.80
7384;DHT22;3733;47.994;8.820;2023-04-24T01:12:19;10.50;94.90
7384;DHT22;3733;47.994;8.820;2023-04-24T01:14:45;10.40;95.30
7384;DHT22;3733;47.994;8.820;2023-04-24T01:17:11;10.40;95.90
7384;DHT22;3733;47.994;8.820;2023-04-24T01:19:37;10.50;96.70
7384;DHT22;3733;47.994;8.820;2023-04-24T01:22:08;10.40;97.70
7384;DHT22;3733;47.994;8.820;2023-04-24T01:24:34;10.40;99.60
7384;DHT22;3733;47.994;8.820;2023-04-24T01:26:59;10.40;99.90
7384;DHT22;3733;47.994;8.820;2023-04-24T01:29:26;10.30;99.90
7384;DHT22;3733;47.994;8.820;2023-04-24T01:31:52;10.40;99.90
7384;DHT22;3733;47.994;8.820;2023-04-24T01:34:18;10.30;99.90
7384;DHT22;3733;47.994;8.820;2023-04-24T01:36:46;10.30;99.90
7384;DHT22;3733;47.994;8.820;2023-04-24T01:39:12;10.30;99.90
7384;DHT22;3733;47.994;8.820;2023-04-24T01:41:38;10.20;99.90
7384;DHT22;3733;47.994;8.820;2023-04-24T01:44:03;10.20;99.90
7384;DHT22;3733;47.994;8.820;2023-04-24T01:46:29;10.20;99.90
7384;DHT22;3733;47.994;8.820;2023-04-24T01:48:59;10.10;99.90
7384;DHT22;3733;47.994;8.820;2023-04-24T01:51:25;10.10;99.90
7384;DHT22;3733;47.994;8.820;2023-04-24T01:53:51;10.10;99.90
7384;DHT22;3733;47.994;8.820;2023-04-24T01:56:16;10.00;99.90
7384;DHT22;3733;47.994;8.820;2023-04-24T01:58:43;10.00;99.90
7384;DHT22;3733;47.994;8.820;2023-04-24T02:01:08;10.00;99.90
7384;DHT22;3733;47.994;8.820;2023-04-24T02:03:34;9.90;99.90
7384;DHT22;3733;47.994;8.820;2023-04-24T02:06:00;9.90;99.90
7384;DHT22;3733;47.994;8.820;2023-04-24T02:08:25;9.90;99.90
7384;DHT22;3733;47.994;8.820;2023-04-24T02:10:51;9.80;99.90
7384;DHT22;3733;47.994;8.820;2023-04-24T02:13:17;9.80;99.90
7384;DHT22;3733;47.994;8.820;2023-04-24T02:15:42;9.80;99.90
7384;DHT22;3733;47.994;8.820;2023-04-24T02:18:08;9.70;99.90
7384;DHT22;3733;47.994;8.820;2023-04-24T02:20:33;9.70;99.90
7384;DHT22;3733;47.994;8.820;2023-04-24T02:23:01;9.70;99.90
7384;DHT22;3733;47.994;8.820;2023-04-24T02:25:26;9.70;99.90
7384;DHT22;3733;47.994;8.820;2023-04-24T02:27:52;9.70;99.90
7384;DHT22;3733;47.994;8.820;2023-04-24T02:30:18;9.70;99.90
7384;DHT22;3733;47.994;8.820;2023-04-24T02:32:43;9.70;99.90
7384;DHT22;3733;47.994;8.820;2023-04-24T02:35:09;9.60;99.90
7384;DHT22;3733;47.994;8.820;2023-04-24T02:37:34;9.60;99.90
7384;DHT22;3733;47.994;8.820;2023-04-24T02:40:00;9.60;99.90
7384;DHT22;3733;47.994;8.820;2023-04-24T02:42:26;9.60;99.90
7384;DHT22;3733;47.994;8.820;2023-04-24T02:44:51;9.60;99.90
7384;DHT22;3733;47.994;8.820;2023-04-24T02:47:17;9.60;99.90
7384;DHT22;3733;47.994;8.820;2023-04-24T02:49:42;9.60;99.90
7384;DHT22;3733;47.994;8.820;2023-04-24T02:52:08;9.60;99.90
7384;DHT22;3733;47.994;8.820;2023-04-24T02:54:34;9.60;99.90
7384;DHT22;3733;47.994;8.820;2023-04-24T02:56:59;9.50;99.90
7384;DHT22;3733;47.994;8.820;2023-04-24T02:59:26;9.50;99.90
7384;DHT22;3733;47.994;8.820;2023-04-24T03:01:54;9.50;99.90
7384;DHT22;3733;47.994;8.820;2023-04-24T03:04:20;9.50;99.90
7384;DHT22;3733;47.994;8.820;2023-04-24T03:06:45;9.50;99.90
7384;DHT22;3733;47.994;8.820;2023-04-24T03:09:11;9.50;99.90
7384;DHT22;3733;47.994;8.820;2023-04-24T03:11:37;9.50;99.90
7384;DHT22;3733;47.994;8.820;2023-04-24T03:14:02;9.50;99.90
7384;DHT22;3733;47.994;8.820;2023-04-24T03:16:28;9.50;99.90
7384;DHT22;3733;47.994;8.820;2023-04-24T03:18:53;9.50;99.90
7384;DHT22;3733;47.994;8.820;2023-04-24T03:21:19;9.50;99.90
7384;DHT22;3733;47.994;8.820;2023-04-24T03:23:45;9.50;99.90
7384;DHT22;3733;47.994;8.820;2023-04-24T03:26:11;9.50;99.90
7384;DHT22;3733;47.994;8.820;2023-04-24T03:28:36;9.50;99.90
7384;DHT22;3733;47.994;8.820;2023-04-24T03:31:03;9.40;99.90
7384;DHT22;3733;47.994;8.820;2023-04-24T03:33:29;9.50;99.90
7384;DHT22;3733;47.994;8.820;2023-04-24T03:35:55;9.50;99.90
7384;DHT22;3733;47.994;8.820;2023-04-24T03:38:20;9.50;99.90
7384;DHT22;3733;47.994;8.820;2023-04-24T03:40:46;9.50;99.90
7384;DHT22;3733;47.994;8.820;2023-04-24T03:43:11;9.50;99.90
7384;DHT22;3733;47.994;8.820;2023-04-24T03:45:37;9.50;99.90
7384;DHT22;3733;47.994;8.820;2023-04-24T03:48:03;9.50;99.90
7384;DHT22;3733;47.994;8.820;2023-04-24T03:50:28;9.40;99.90
7384;DHT22;3733;47.994;8.820;2023-04-24T03:52:54;9.40;99.90
7384;DHT22;3733;47.994;8.820;2023-04-24T03:55:20;9.40;99.90
7384;DHT22;3733;47.994;8.820;2023-04-24T03:57:45;9.30;99.90
7384;DHT22;3733;47.994;8.820;2023-04-24T04:00:11;9.40;99.90
7384;DHT22;3733;47.994;8.820;2023-04-24T04:02:37;9.30;99.90
7384;DHT22;3733;47.994;8.820;2023-04-24T04:05:03;9.30;99.90
7384;DHT22;3733;47.994;8.820;2023-04-24T04:07:29;9.20;99.90
7384;DHT22;3733;47.994;8.820;2023-04-24T04:09:55;9.20;99.90
7384;DHT22;3733;47.994;8.820;2023-04-24T04:12:20;9.20;99.90
7384;DHT22;3733;47.994;8.820;2023-04-24T04:14:46;9.10;99.90
7384;DHT22;3733;47.994;8.820;2023-04-24T04:17:12;9.10;99.90
7384;DHT22;3733;47.994;8.820;2023-04-24T04:19:37;9.10;99.90
7384;DHT22;3733;47.994;8.820;2023-04-24T04:22:03;9.10;99.90
7384;DHT22;3733;47.994;8.820;2023-04-24T04:24:28;9.10;99.90
7384;DHT22;3733;47.994;8.820;2023-04-24T04:26:54;9.10;99.90
7384;DHT22;3733;47.994;8.820;2023-04-24T04:29:23;9.00;99.90
7384;DHT22;3733;47.994;8.820;2023-04-24T04:31:49;9.00;99.90
7384;DHT22;3733;47.994;8.820;2023-04-24T04:34:15;9.00;99.90
7384;DHT22;3733;47.994;8.820;2023-04-24T04:36:41;9.00;99.90
7384;DHT22;3733;47.994;8.820;2023-04-24T04:39:06;9.00;99.90
7384;DHT22;3733;47.994;8.820;2023-04-24T04:41:32;9.00;99.90
7384;DHT22;3733;47.994;8.820;2023-04-24T04:44:01;9.00;99.90
7384;DHT22;3733;47.994;8.820;2023-04-24T04:46:27;9.00;99.90
7384;DHT22;3733;47.994;8.820;2023-04-24T04:48:55;9.00;99.90
7384;DHT22;3733;47.994;8.820;2023-04-24T04:51:22;9.00;99.90
7384;DHT22;3733;47.994;8.820;2023-04-24T04:53:47;9.00;99.90
7384;DHT22;3733;47.994;8.820;2023-04-24T04:56:13;9.00;99.90
7384;DHT22;3733;47.994;8.820;2023-04-24T04:58:38;9.00;99.90
7384;DHT22;3733;47.994;8.820;2023-04-24T05:01:04;9.00;99.90
7384;DHT22;3733;47.994;8.820;2023-04-24T05:03:30;9.00;99.90
7384;DHT22;3733;47.994;8.820;2023-04-24T05:05:55;8.90;99.90
7384;DHT22;3733;47.994;8.820;2023-04-24T05:08:21;8.90;99.90
7384;DHT22;3733;47.994;8.820;2023-04-24T05:10:46;8.90;99.90
7384;DHT22;3733;47.994;8.820;2023-04-24T05:13:12;9.00;99.90
7384;DHT22;3733;47.994;8.820;2023-04-24T05:15:38;8.90;99.90
7384;DHT22;3733;47.994;8.820;2023-04-24T05:18:03;8.90;99.90
7384;DHT22;3733;47.994;8.820;2023-04-24T05:20:29;8.90;99.90
7384;DHT22;3733;47.994;8.820;2023-04-24T05:22:55;8.90;99.90
7384;DHT22;3733;47.994;8.820;2023-04-24T05:25:20;8.90;99.90
7384;DHT22;3733;47.994;8.820;2023-04-24T05:27:46;8.90;99.90
7384;DHT22;3733;47.994;8.820;2023-04-24T05:30:12;8.90;99.90
7384;DHT22;3733;47.994;8.820;2023-04-24T05:32:38;8.90;99.90
7384;DHT22;3733;47.994;8.820;2023-04-24T05:35:04;8.90;99.90
7384;DHT22;3733;47.994;8.820;2023-04-24T05:37:29;8.90;99.90
7384;DHT22;3733;47.994;8.820;2023-04-24T05:39:55;8.90;99.90
7384;DHT22;3733;47.994;8.820;2023-04-24T05:42:20;8.90;99.90
7384;DHT22;3733;47.994;8.820;2023-04-24T05:44:46;8.90;99.90
7384;DHT22;3733;47.994;8.820;2023-04-24T05:47:12;9.00;99.90
7384;DHT22;3733;47.994;8.820;2023-04-24T05:49:37;9.00;99.90
7384;DHT22;3733;47.994;8.820;2023-04-24T05:52:03;9.00;99.90
7384;DHT22;3733;47.994;8.820;2023-04-24T05:54:30;9.00;99.90
7384;DHT22;3733;47.994;8.820;2023-04-24T05:56:56;9.00;99.90
7384;DHT22;3733;47.994;8.820;2023-04-24T05:59:22;9.10;99.90
7384;DHT22;3733;47.994;8.820;2023-04-24T06:01:47;9.10;99.90
7384;DHT22;3733;47.994;8.820;2023-04-24T06:04:13;9.20;99.90
7384;DHT22;3733;47.994;8.820;2023-04-24T06:06:39;9.30;99.90
7384;DHT22;3733;47.994;8.820;2023-04-24T06:09:05;9.40;99.90
7384;DHT22;3733;47.994;8.820;2023-04-24T06:11:31;9.50;99.90
7384;DHT22;3733;47.994;8.820;2023-04-24T06:13:57;9.60;99.90
7384;DHT22;3733;47.994;8.820;2023-04-24T06:16:22;9.70;99.90
7384;DHT22;3733;47.994;8.820;2023-04-24T06:18:48;9.90;99.90
7384;DHT22;3733;47.994;8.820;2023-04-24T06:21:14;9.90;99.90
7384;DHT22;3733;47.994;8.820;2023-04-24T06:23:40;9.90;99.90
7384;DHT22;3733;47.994;8.820;2023-04-24T06:26:06;10.00;99.90
7384;DHT22;3733;47.994;8.820;2023-04-24T06:28:31;10.10;99.90
7384;DHT22;3733;47.994;8.820;2023-04-24T06:30:57;10.20;99.90
7384;DHT22;3733;47.994;8.820;2023-04-24T06:33:23;10.30;99.90
7384;DHT22;3733;47.994;8.820;2023-04-24T06:35:48;10.40;99.90
7384;DHT22;3733;47.994;8.820;2023-04-24T06:38:14;10.40;99.90
7384;DHT22;3733;47.994;8.820;2023-04-24T06:40:41;10.50;99.90
7384;DHT22;3733;47.994;8.820;2023-04-24T06:43:06;10.60;99.90
7384;DHT22;3733;47.994;8.820;2023-04-24T06:45:32;10.70;95.90
7384;DHT22;3733;47.994;8.820;2023-04-24T06:47:58;10.70;96.00
7384;DHT22;3733;47.994;8.820;2023-04-24T06:50:24;10.70;83.10
7384;DHT22;3733;47.994;8.820;2023-04-24T06:52:49;10.70;79.30
7384;DHT22;3733;47.994;8.820;2023-04-24T06:55:15;10.80;85.10
7384;DHT22;3733;47.994;8.820;2023-04-24T06:57:42;10.90;79.70
7384;DHT22;3733;47.994;8.820;2023-04-24T07:00:08;10.90;75.90
7384;DHT22;3733;47.994;8.820;2023-04-24T07:02:35;10.90;72.80
7384;DHT22;3733;47.994;8.820;2023-04-24T07:05:00;10.80;75.80
7384;DHT22;3733;47.994;8.820;2023-04-24T07:07:26;10.80;75.70
7384;DHT22;3733;47.994;8.820;2023-04-24T07:09:53;10.80;75.10
7384;DHT22;3733;47.994;8.820;2023-04-24T07:12:19;10.80;70.10
7384;DHT22;3733;47.994;8.820;2023-04-24T07:14:47;10.90;69.20
7384;DHT22;3733;47.994;8.820;2023-04-24T07:17:12;10.90;64.00
7384;DHT22;3733;47.994;8.820;2023-04-24T07:19:38;11.00;63.40
7384;DHT22;3733;47.994;8.820;2023-04-24T07:22:04;11.00;61.30
7384;DHT22;3733;47.994;8.820;2023-04-24T07:24:30;11.00;62.80
7384;DHT22;3733;47.994;8.820;2023-04-24T07:26:57;11.00;62.40
7384;DHT22;3733;47.994;8.820;2023-04-24T07:29:23;11.10;61.00
7384;DHT22;3733;47.994;8.820;2023-04-24T07:31:49;11.00;59.30
7384;DHT22;3733;47.994;8.820;2023-04-24T07:34:14;11.00;60.00
7384;DHT22;3733;47.994;8.820;2023-04-24T07:36:41;10.90;59.10
7384;DHT22;3733;47.994;8.820;2023-04-24T07:39:07;10.80;59.70
7384;DHT22;3733;47.994;8.820;2023-04-24T07:41:33;10.80;60.20
7384;DHT22;3733;47.994;8.820;2023-04-24T07:43:59;10.70;61.10
7384;DHT22;3733;47.994;8.820;2023-04-24T07:46:24;10.60;60.20
7384;DHT22;3733;47.994;8.820;2023-04-24T07:48:50;10.60;61.70
7384;DHT22;3733;47.994;8.820;2023-04-24T07:51:16;10.50;62.10
7384;DHT22;3733;47.994;8.820;2023-04-24T07:53:43;10.50;62.20
7384;DHT22;3733;47.994;8.820;2023-04-24T07:56:09;10.40;62.60
7384;DHT22;3733;47.994;8.820;2023-04-24T07:58:35;10.30;61.50
7384;DHT22;3733;47.994;8.820;2023-04-24T08:01:00;10.30;62.20
7384;DHT22;3733;47.994;8.820;2023-04-24T08:03:26;10.20;61.60
7384;DHT22;3733;47.994;8.820;2023-04-24T08:05:52;10.20;62.60
7384;DHT22;3733;47.994;8.820;2023-04-24T08:08:17;10.30;62.80
7384;DHT22;3733;47.994;8.820;2023-04-24T08:10:43;10.40;62.20
7384;DHT22;3733;47.994;8.820;2023-04-24T08:13:09;10.50;63.10
7384;DHT22;3733;47.994;8.820;2023-04-24T08:15:36;10.60;61.40
7384;DHT22;3733;47.994;8.820;2023-04-24T08:18:02;10.70;60.60
7384;DHT22;3733;47.994;8.820;2023-04-24T08:20:28;10.70;60.70
7384;DHT22;3733;47.994;8.820;2023-04-24T08:22:53;10.80;60.80
7384;DHT22;3733;47.994;8.820;2023-04-24T08:25:20;10.90;60.90
7384;DHT22;3733;47.994;8.820;2023-04-24T08:27:45;10.90;59.50
7384;DHT22;3733;47.994;8.820;2023-04-24T08:30:11;10.80;59.80
7384;DHT22;3733;47.994;8.820;2023-04-24T08:32:37;10.80;60.00
7384;DHT22;3733;47.994;8.820;2023-04-24T08:35:03;10.90;58.60
7384;DHT22;3733;47.994;8.820;2023-04-24T08:37:28;10.80;55.90
7384;DHT22;3733;47.994;8.820;2023-04-24T08:39:54;10.70;55.90
7384;DHT22;3733;47.994;8.820;2023-04-24T08:42:20;10.60;56.60
7384;DHT22;3733;47.994;8.820;2023-04-24T08:44:48;10.60;54.60
7384;DHT22;3733;47.994;8.820;2023-04-24T08:47:15;10.50;53.10
7384;DHT22;3733;47.994;8.820;2023-04-24T08:49:41;10.50;52.70
7384;DHT22;3733;47.994;8.820;2023-04-24T08:52:08;10.40;52.80
7384;DHT22;3733;47.994;8.820;2023-04-24T08:54:36;10.30;52.80
7384;DHT22;3733;47.994;8.820;2023-04-24T08:57:03;10.40;53.60
7384;DHT22;3733;47.994;8.820;2023-04-24T08:59:30;10.40;53.60
7384;DHT22;3733;47.994;8.820;2023-04-24T09:01:56;10.50;53.60
7384;DHT22;3733;47.994;8.820;2023-04-24T09:04:23;10.60;54.90
7384;DHT22;3733;47.994;8.820;2023-04-24T09:06:51;10.90;55.20
7384;DHT22;3733;47.994;8.820;2023-04-24T09:09:17;11.00;53.90
7384;DHT22;3733;47.994;8.820;2023-04-24T09:11:44;11.20;52.20
7384;DHT22;3733;47.994;8.820;2023-04-24T09:14:10;11.40;51.20
7384;DHT22;3733;47.994;8.820;2023-04-24T09:16:36;11.50;50.10
7384;DHT22;3733;47.994;8.820;2023-04-24T09:19:02;11.60;50.20
7384;DHT22;3733;47.994;8.820;2023-04-24T09:21:34;11.90;50.10
7384;DHT22;3733;47.994;8.820;2023-04-24T09:24:05;12.00;48.70
7384;DHT22;3733;47.994;8.820;2023-04-24T09:26:33;12.10;47.70
7384;DHT22;3733;47.994;8.820;2023-04-24T09:29:00;12.00;47.20
7384;DHT22;3733;47.994;8.820;2023-04-24T09:31:28;11.80;46.20
7384;DHT22;3733;47.994;8.820;2023-04-24T09:33:54;11.70;47.40
7384;DHT22;3733;47.994;8.820;2023-04-24T09:36:27;11.60;48.20
7384;DHT22;3733;47.994;8.820;2023-04-24T09:38:57;11.80;48.60
7384;DHT22;3733;47.994;8.820;2023-04-24T09:41:23;11.80;48.60
7384;DHT22;3733;47.994;8.820;2023-04-24T09:43:49;11.80;47.90
7384;DHT22;3733;47.994;8.820;2023-04-24T09:46:18;11.70;48.20
7384;DHT22;3733;47.994;8.820;2023-04-24T09:48:44;11.70;48.80
7384;DHT22;3733;47.994;8.820;2023-04-24T09:51:09;11.60;48.30
7384;DHT22;3733;47.994;8.820;2023-04-24T09:53:38;11.40;48.10
7384;DHT22;3733;47.994;8.820;2023-04-24T09:56:10;11.20;48.90
7384;DHT22;3733;47.994;8.820;2023-04-24T09:58:37;11.10;49.30
7384;DHT22;3733;47.994;8.820;2023-04-24T10:01:04;11.00;50.20
7384;DHT22;3733;47.994;8.820;2023-04-24T10:03:30;10.90;50.80
7384;DHT22;3733;47.994;8.820;2023-04-24T10:06:00;10.80;50.50
7384;DHT22;3733;47.994;8.820;2023-04-24T10:08:26;10.80;51.40
7384;DHT22;3733;47.994;8.820;2023-04-24T10:10:52;10.90;51.80
7384;DHT22;3733;47.994;8.820;2023-04-24T10:13:18;11.00;51.70
7384;DHT22;3733;47.994;8.820;2023-04-24T10:15:44;11.00;51.10
7384;DHT22;3733;47.994;8.820;2023-04-24T10:18:10;11.00;51.40
7384;DHT22;3733;47.994;8.820;2023-04-24T10:20:38;10.90;51.30
7384;DHT22;3733;47.994;8.820;2023-04-24T10:23:04;10.90;51.80
7384;DHT22;3733;47.994;8.820;2023-04-24T10:25:32;10.80;51.50
7384;DHT22;3733;47.994;8.820;2023-04-24T10:27:59;10.70;51.60
7384;DHT22;3733;47.994;8.820;2023-04-24T10:30:33;10.60;51.90
7384;DHT22;3733;47.994;8.820;2023-04-24T10:33:07;10.60;52.10
7384;DHT22;3733;47.994;8.820;2023-04-24T10:35:36;10.80;52.00
7384;DHT22;3733;47.994;8.820;2023-04-24T10:38:06;11.00;52.10
7384;DHT22;3733;47.994;8.820;2023-04-24T10:40:35;11.20;52.20
7384;DHT22;3733;47.994;8.820;2023-04-24T10:43:05;11.40;51.10
7384;DHT22;3733;47.994;8.820;2023-04-24T10:45:33;11.40;50.70
7384;DHT22;3733;47.994;8.820;2023-04-24T10:48:02;11.40;50.90
7384;DHT22;3733;47.994;8.820;2023-04-24T10:50:30;11.50;50.10
7384;DHT22;3733;47.994;8.820;2023-04-24T10:53:11;11.50;50.60
7384;DHT22;3733;47.994;8.820;2023-04-24T10:58:12;11.50;49.80
7384;DHT22;3733;47.994;8.820;2023-04-24T11:00:39;11.70;50.60
7384;DHT22;3733;47.994;8.820;2023-04-24T11:03:24;12.00;49.60
7384;DHT22;3733;47.994;8.820;2023-04-24T11:08:32;12.60;48.20
7384;DHT22;3733;47.994;8.820;2023-04-24T11:16:30;12.90;48.80
7384;DHT22;3733;47.994;8.820;2023-04-24T11:19:03;13.20;48.00
7384;DHT22;3733;47.994;8.820;2023-04-24T11:21:50;13.30;47.40
7384;DHT22;3733;47.994;8.820;2023-04-24T11:24:39;13.40;45.20
7384;DHT22;3733;47.994;8.820;2023-04-24T11:29:43;13.30;45.00
7384;DHT22;3733;47.994;8.820;2023-04-24T11:34:46;13.30;45.30
7384;DHT22;3733;47.994;8.820;2023-04-24T11:37:13;13.30;45.50
7384;DHT22;3733;47.994;8.820;2023-04-24T11:39:38;13.20;44.70
7384;DHT22;3733;47.994;8.820;2023-04-24T11:42:04;13.30;45.90
7384;DHT22;3733;47.994;8.820;2023-04-24T11:44:34;13.50;45.30
7384;DHT22;3733;47.994;8.820;2023-04-24T11:46:59;13.70;44.70
7384;DHT22;3733;47.994;8.820;2023-04-24T11:49:25;13.80;43.80
7384;DHT22;3733;47.994;8.820;2023-04-24T11:51:55;13.70;44.00
7384;DHT22;3733;47.994;8.820;2023-04-24T11:54:21;13.60;44.60
7384;DHT22;3733;47.994;8.820;2023-04-24T11:56:47;13.40;44.10
7384;DHT22;3733;47.994;8.820;2023-04-24T11:59:13;13.20;44.70
7384;DHT22;3733;47.994;8.820;2023-04-24T12:01:46;13.20;43.50
7384;DHT22;3733;47.994;8.820;2023-04-24T12:04:13;13.10;43.20
7384;DHT22;3733;47.994;8.820;2023-04-24T12:06:38;12.90;44.10
7384;DHT22;3733;47.994;8.820;2023-04-24T12:09:04;12.80;43.30
7384;DHT22;3733;47.994;8.820;2023-04-24T12:11:30;12.80;43.20
7384;DHT22;3733;47.994;8.820;2023-04-24T12:13:55;12.60;43.40
7384;DHT22;3733;47.994;8.820;2023-04-24T12:16:21;12.50;44.70
7384;DHT22;3733;47.994;8.820;2023-04-24T12:18:47;12.40;44.50
7384;DHT22;3733;47.994;8.820;2023-04-24T12:21:22;12.30;45.20
7384;DHT22;3733;47.994;8.820;2023-04-24T12:23:50;12.20;44.80
7384;DHT22;3733;47.994;8.820;2023-04-24T12:26:17;12.20;45.20
7384;DHT22;3733;47.994;8.820;2023-04-24T12:28:47;12.30;46.40
7384;DHT22;3733;47.994;8.820;2023-04-24T12:31:13;12.70;46.90
7384;DHT22;3733;47.994;8.820;2023-04-24T12:33:39;12.90;45.70
7384;DHT22;3733;47.994;8.820;2023-04-24T12:36:04;12.90;44.40
7384;DHT22;3733;47.994;8.820;2023-04-24T12:38:32;12.90;44.40
7384;DHT22;3733;47.994;8.820;2023-04-24T12:41:14;12.70;44.40
7384;DHT22;3733;47.994;8.820;2023-04-24T12:43:51;12.50;45.00
7384;DHT22;3733;47.994;8.820;2023-04-24T12:46:16;12.80;46.00
7384;DHT22;3733;47.994;8.820;2023-04-24T12:48:42;13.20;45.10
7384;DHT22;3733;47.994;8.820;2023-04-24T12:51:08;13.50;45.30
7384;DHT22;3733;47.994;8.820;2023-04-24T12:53:33;13.80;45.30
7384;DHT22;3733;47.994;8.820;2023-04-24T12:55:59;14.10;44.00
7384;DHT22;3733;47.994;8.820;2023-04-24T12:58:24;14.30;44.60
7384;DHT22;3733;47.994;8.820;2023-04-24T13:00:50;14.60;43.80
7384;DHT22;3733;47.994;8.820;2023-04-24T13:03:16;14.90;43.30
7384;DHT22;3733;47.994;8.820;2023-04-24T13:05:42;14.90;42.50
7384;DHT22;3733;47.994;8.820;2023-04-24T13:08:09;14.70;41.30
7384;DHT22;3733;47.994;8.820;2023-04-24T13:10:34;14.20;42.20
7384;DHT22;3733;47.994;8.820;2023-04-24T13:13:00;13.90;43.10
7384;DHT22;3733;47.994;8.820;2023-04-24T13:15:26;13.70;43.20
7384;DHT22;3733;47.994;8.820;2023-04-24T13:17:51;13.40;42.80
7384;DHT22;3733;47.994;8.820;2023-04-24T13:20:17;13.20;43.40
7384;DHT22;3733;47.994;8.820;2023-04-24T13:22:43;13.10;43.70
7384;DHT22;3733;47.994;8.820;2023-04-24T13:25:09;13.10;45.10
7384;DHT22;3733;47.994;8.820;2023-04-24T13:27:35;13.10;44.10
7384;DHT22;3733;47.994;8.820;2023-04-24T13:30:01;13.00;44.20
7384;DHT22;3733;47.994;8.820;2023-04-24T13:32:26;12.90;44.20
7384;DHT22;3733;47.994;8.820;2023-04-24T13:34:53;12.70;43.80
7384;DHT22;3733;47.994;8.820;2023-04-24T13:37:19;12.80;44.10
7384;DHT22;3733;47.994;8.820;2023-04-24T13:39:45;13.00;43.60
7384;DHT22;3733;47.994;8.820;2023-04-24T13:42:10;13.50;44.60
7384;DHT22;3733;47.994;8.820;2023-04-24T13:44:36;14.20;43.10
7384;DHT22;3733;47.994;8.820;2023-04-24T13:47:01;14.80;42.00
7384;DHT22;3733;47.994;8.820;2023-04-24T13:49:28;15.20;40.80
7384;DHT22;3733;47.994;8.820;2023-04-24T13:51:55;15.30;40.70
7384;DHT22;3733;47.994;8.820;2023-04-24T13:54:21;14.90;39.70
7384;DHT22;3733;47.994;8.820;2023-04-24T13:56:48;14.40;40.10
7384;DHT22;3733;47.994;8.820;2023-04-24T13:59:14;13.90;41.10
7384;DHT22;3733;47.994;8.820;2023-04-24T14:01:40;13.50;42.20
7384;DHT22;3733;47.994;8.820;2023-04-24T14:04:05;13.20;42.80
7384;DHT22;3733;47.994;8.820;2023-04-24T14:06:31;13.00;43.20
7384;DHT22;3733;47.994;8.820;2023-04-24T14:08:57;12.80;43.70
7384;DHT22;3733;47.994;8.820;2023-04-24T14:11:23;12.60;43.90
7384;DHT22;3733;47.994;8.820;2023-04-24T14:13:49;12.60;45.00
7384;DHT22;3733;47.994;8.820;2023-04-24T14:16:15;12.50;45.10
7384;DHT22;3733;47.994;8.820;2023-04-24T14:18:40;12.40;45.40
7384;DHT22;3733;47.994;8.820;2023-04-24T14:21:06;12.40;46.00
7384;DHT22;3733;47.994;8.820;2023-04-24T14:23:32;12.40;47.00
7384;DHT22;3733;47.994;8.820;2023-04-24T14:25:58;12.40;46.70
7384;DHT22;3733;47.994;8.820;2023-04-24T14:28:25;12.30;46.50
7384;DHT22;3733;47.994;8.820;2023-04-24T14:30:51;12.30;46.50
7384;DHT22;3733;47.994;8.820;2023-04-24T14:33:17;12.20;47.00
7384;DHT22;3733;47.994;8.820;2023-04-24T14:35:43;12.10;47.30
7384;DHT22;3733;47.994;8.820;2023-04-24T14:38:09;12.10;47.50
7384;DHT22;3733;47.994;8.820;2023-04-24T14:40:35;12.00;47.80
7384;DHT22;3733;47.994;8.820;2023-04-24T14:43:01;12.00;47.80
7384;DHT22;3733;47.994;8.820;2023-04-24T14:45:26;11.90;47.70
7384;DHT22;3733;47.994;8.820;2023-04-24T14:47:53;11.90;48.30
7384;DHT22;3733;47.994;8.820;2023-04-24T14:50:19;12.00;48.70
7384;DHT22;3733;47.994;8.820;2023-04-24T14:52:44;12.10;48.10
7384;DHT22;3733;47.994;8.820;2023-04-24T14:55:10;12.20;47.70
7384;DHT22;3733;47.994;8.820;2023-04-24T14:57:36;12.20;46.80
7384;DHT22;3733;47.994;8.820;2023-04-24T15:00:03;12.20;47.00
7384;DHT22;3733;47.994;8.820;2023-04-24T15:02:32;12.40;47.00
7384;DHT22;3733;47.994;8.820;2023-04-24T15:04:58;12.80;47.70
7384;DHT22;3733;47.994;8.820;2023-04-24T15:07:24;13.40;47.00
7384;DHT22;3733;47.994;8.820;2023-04-24T15:09:50;13.70;45.30
7384;DHT22;3733;47.994;8.820;2023-04-24T15:12:15;14.00;45.20
7384;DHT22;3733;47.994;8.820;2023-04-24T15:14:41;14.40;45.00
7384;DHT22;3733;47.994;8.820;2023-04-24T15:17:07;14.60;44.60
7384;DHT22;3733;47.994;8.820;2023-04-24T15:19:32;14.50;44.00
7384;DHT22;3733;47.994;8.820;2023-04-24T15:21:58;14.10;43.30
7384;DHT22;3733;47.994;8.820;2023-04-24T15:24:23;14.00;44.50
7384;DHT22;3733;47.994;8.820;2023-04-24T15:26:49;13.90;45.30
7384;DHT22;3733;47.994;8.820;2023-04-24T15:29:15;13.60;44.60
7384;DHT22;3733;47.994;8.820;2023-04-24T15:31:41;13.20;45.20
7384;DHT22;3733;47.994;8.820;2023-04-24T15:34:06;12.80;45.80
7384;DHT22;3733;47.994;8.820;2023-04-24T15:36:32;12.50;46.50
7384;DHT22;3733;47.994;8.820;2023-04-24T15:38:58;12.20;47.10
7384;DHT22;3733;47.994;8.820;2023-04-24T15:41:23;12.00;47.50
7384;DHT22;3733;47.994;8.820;2023-04-24T15:43:49;11.90;48.10
7384;DHT22;3733;47.994;8.820;2023-04-24T15:46:15;11.70;48.60
7384;DHT22;3733;47.994;8.820;2023-04-24T15:48:44;11.60;49.00
7384;DHT22;3733;47.994;8.820;2023-04-24T15:51:10;11.50;49.50
7384;DHT22;3733;47.994;8.820;2023-04-24T15:53:35;11.50;49.70
7384;DHT22;3733;47.994;8.820;2023-04-24T15:56:01;11.50;49.90
7384;DHT22;3733;47.994;8.820;2023-04-24T15:58:27;11.50;50.30
7384;DHT22;3733;47.994;8.820;2023-04-24T16:00:53;11.40;50.20
7384;DHT22;3733;47.994;8.820;2023-04-24T16:03:19;11.40;50.70
7384;DHT22;3733;47.994;8.820;2023-04-24T16:05:45;11.30;50.10
7384;DHT22;3733;47.994;8.820;2023-04-24T16:08:11;11.30;50.80
7384;DHT22;3733;47.994;8.820;2023-04-24T16:10:38;11.20;50.90
7384;DHT22;3733;47.994;8.820;2023-04-24T16:13:04;11.20;51.20
7384;DHT22;3733;47.994;8.820;2023-04-24T16:15:30;11.20;51.40
7384;DHT22;3733;47.994;8.820;2023-04-24T16:17:56;11.20;51.10